sensor_id;sensor_type;location;lat;lon;timestamp;temperature;humidity
66722;SHT31;53633;49.932;10.884;2024-02-23T00:05:38;9.83;78.30
66722;SHT31;53633;49.932;10.884;2024-02-23T00:08:47;9.82;78.01
66722;SHT31;53633;49.932;10.884;2024-02-23T00:11:54;9.75;77.82
66722;SHT31;53633;49.932;10.884;2024-02-23T00:14:24;9.77;78.36
66722;SHT31;53633;49.932;10.884;2024-02-23T00:16:51;9.75;78.06
66722;SHT31;53633;49.932;10.884;2024-02-23T00:19:19;9.72;77.49
66722;SHT31;53633;49.932;10.884;2024-02-23T00:25:06;9.71;77.13
66722;SHT31;53633;49.932;10.884;2024-02-23T00:27:34;9.70;77.03
66722;SHT31;53633;49.932;10.884;2024-02-23T00:30:02;9.65;77.01
66722;SHT31;53633;49.932;10.884;2024-02-23T00:36:16;9.64;76.71
66722;SHT31;53633;49.932;10.884;2024-02-23T00:38:46;9.61;76.60
66722;SHT31;53633;49.932;10.884;2024-02-23T00:42:12;9.52;76.19
66722;SHT31;53633;49.932;10.884;2024-02-23T00:44:40;9.54;76.87
66722;SHT31;53633;49.932;10.884;2024-02-23T00:47:20;9.50;76.76
66722;SHT31;53633;49.932;10.884;2024-02-23T00:50:26;9.48;76.52
66722;SHT31;53633;49.932;10.884;2024-02-23T00:53:35;9.45;76.40
66722;SHT31;53633;49.932;10.884;2024-02-23T00:59:40;9.38;76.31
66722;SHT31;53633;49.932;10.884;2024-02-23T01:02:34;9.30;75.35
66722;SHT31;53633;49.932;10.884;2024-02-23T01:06:08;9.27;75.33
66722;SHT31;53633;49.932;10.884;2024-02-23T01:09:23;9.16;74.14
66722;SHT31;53633;49.932;10.884;2024-02-23T01:12:07;9.12;74.31
66722;SHT31;53633;49.932;10.884;2024-02-23T01:24:38;9.00;73.52
66722;SHT31;53633;49.932;10.884;2024-02-23T01:30:40;8.85;73.24
66722;SHT31;53633;49.932;10.884;2024-02-23T01:33:51;8.83;72.50
66722;SHT31;53633;49.932;10.884;2024-02-23T01:36:55;8.80;72.65
66722;SHT31;53633;49.932;10.884;2024-02-23T01:46:24;8.71;70.95
66722;SHT31;53633;49.932;10.884;2024-02-23T01:49:14;8.65;71.28
66722;SHT31;53633;49.932;10.884;2024-02-23T01:52:00;8.67;70.94
66722;SHT31;53633;49.932;10.884;2024-02-23T01:54:50;8.67;71.68
66722;SHT31;53633;49.932;10.884;2024-02-23T01:57:54;8.72;72.40
66722;SHT31;53633;49.932;10.884;2024-02-23T02:01:10;8.75;72.01
66722;SHT31;53633;49.932;10.884;2024-02-23T02:04:21;8.83;73.25
66722;SHT31;53633;49.932;10.884;2024-02-23T02:06:53;8.82;73.07
66722;SHT31;53633;49.932;10.884;2024-02-23T02:09:54;8.82;73.32
66722;SHT31;53633;49.932;10.884;2024-02-23T02:13:06;8.86;73.92
66722;SHT31;53633;49.932;10.884;2024-02-23T02:15:35;8.80;73.86
66722;SHT31;53633;49.932;10.884;2024-02-23T02:18:34;8.80;74.23
66722;SHT31;53633;49.932;10.884;2024-02-23T02:27:59;8.68;73.84
66722;SHT31;53633;49.932;10.884;2024-02-23T02:30:27;8.57;73.89
66722;SHT31;53633;49.932;10.884;2024-02-23T02:33:34;8.48;73.42
66722;SHT31;53633;49.932;10.884;2024-02-23T02:36:47;8.47;74.16
66722;SHT31;53633;49.932;10.884;2024-02-23T02:45:54;8.33;73.87
66722;SHT31;53633;49.932;10.884;2024-02-23T02:49:02;8.37;74.15
66722;SHT31;53633;49.932;10.884;2024-02-23T02:52:26;8.44;74.44
66722;SHT31;53633;49.932;10.884;2024-02-23T02:55:45;8.42;74.58
66722;SHT31;53633;49.932;10.884;2024-02-23T02:58:52;8.51;75.09
66722;SHT31;53633;49.932;10.884;2024-02-23T03:10:50;8.47;75.06
66722;SHT31;53633;49.932;10.884;2024-02-23T03:13:33;8.44;75.08
66722;SHT31;53633;49.932;10.884;2024-02-23T03:19:50;8.24;75.66
66722;SHT31;53633;49.932;10.884;2024-02-23T03:22:33;8.24;75.70
66722;SHT31;53633;49.932;10.884;2024-02-23T03:25:15;8.23;75.58
66722;SHT31;53633;49.932;10.884;2024-02-23T03:44:05;8.26;74.87
66722;SHT31;53633;49.932;10.884;2024-02-23T03:50:02;8.27;74.59
66722;SHT31;53633;49.932;10.884;2024-02-23T03:53:15;8.20;74.19
66722;SHT31;53633;49.932;10.884;2024-02-23T03:56:05;8.22;74.50
66722;SHT31;53633;49.932;10.884;2024-02-23T04:05:34;8.22;75.64
66722;SHT31;53633;49.932;10.884;2024-02-23T04:08:24;8.17;76.44
66722;SHT31;53633;49.932;10.884;2024-02-23T04:11:25;8.27;76.99
66722;SHT31;53633;49.932;10.884;2024-02-23T04:17:46;8.24;77.60
66722;SHT31;53633;49.932;10.884;2024-02-23T04:23:47;8.04;78.37
66722;SHT31;53633;49.932;10.884;2024-02-23T04:26:22;8.09;78.69
66722;SHT31;53633;49.932;10.884;2024-02-23T04:33:06;7.93;79.95
66722;SHT31;53633;49.932;10.884;2024-02-23T04:35:34;7.81;80.15
66722;SHT31;53633;49.932;10.884;2024-02-23T04:38:06;7.79;80.41
66722;SHT31;53633;49.932;10.884;2024-02-23T04:40:41;7.79;80.66
66722;SHT31;53633;49.932;10.884;2024-02-23T04:47:02;7.71;81.49
66722;SHT31;53633;49.932;10.884;2024-02-23T04:50:19;7.64;81.04
66722;SHT31;53633;49.932;10.884;2024-02-23T04:53:15;7.48;80.13
66722;SHT31;53633;49.932;10.884;2024-02-23T04:59:51;7.31;79.03
66722;SHT31;53633;49.932;10.884;2024-02-23T05:02:20;7.16;78.10
66722;SHT31;53633;49.932;10.884;2024-02-23T05:05:37;7.11;76.87
66722;SHT31;53633;49.932;10.884;2024-02-23T05:08:07;7.11;77.16
66722;SHT31;53633;49.932;10.884;2024-02-23T05:11:16;7.17;77.41
66722;SHT31;53633;49.932;10.884;2024-02-23T05:14:17;7.11;76.80
66722;SHT31;53633;49.932;10.884;2024-02-23T05:20:23;7.06;76.44
66722;SHT31;53633;49.932;10.884;2024-02-23T05:30:19;6.95;76.92
66722;SHT31;53633;49.932;10.884;2024-02-23T05:33:23;6.93;77.14
66722;SHT31;53633;49.932;10.884;2024-02-23T05:36:05;6.93;77.20
66722;SHT31;53633;49.932;10.884;2024-02-23T05:39:05;6.93;76.95
66722;SHT31;53633;49.932;10.884;2024-02-23T05:41:49;6.88;76.95
66722;SHT31;53633;49.932;10.884;2024-02-23T05:44:30;6.73;76.35
66722;SHT31;53633;49.932;10.884;2024-02-23T05:46:58;6.82;77.00
66722;SHT31;53633;49.932;10.884;2024-02-23T05:49:25;6.76;76.83
66722;SHT31;53633;49.932;10.884;2024-02-23T05:52:00;6.78;76.91
66722;SHT31;53633;49.932;10.884;2024-02-23T05:54:28;6.78;76.58
66722;SHT31;53633;49.932;10.884;2024-02-23T05:56:57;6.81;76.66
66722;SHT31;53633;49.932;10.884;2024-02-23T05:59:27;6.83;77.10
66722;SHT31;53633;49.932;10.884;2024-02-23T06:01:59;6.79;77.04
66722;SHT31;53633;49.932;10.884;2024-02-23T06:04:28;6.68;77.03
66722;SHT31;53633;49.932;10.884;2024-02-23T06:07:00;6.68;77.24
66722;SHT31;53633;49.932;10.884;2024-02-23T06:09:29;6.71;77.39
66722;SHT31;53633;49.932;10.884;2024-02-23T06:12:09;6.71;77.75
66722;SHT31;53633;49.932;10.884;2024-02-23T06:14:36;6.82;77.58
66722;SHT31;53633;49.932;10.884;2024-02-23T06:17:04;6.86;77.59
66722;SHT31;53633;49.932;10.884;2024-02-23T06:19:38;6.83;77.61
66722;SHT31;53633;49.932;10.884;2024-02-23T06:22:11;6.90;77.59
66722;SHT31;53633;49.932;10.884;2024-02-23T06:24:39;6.86;77.43
66722;SHT31;53633;49.932;10.884;2024-02-23T06:27:08;6.82;77.64
66722;SHT31;53633;49.932;10.884;2024-02-23T06:29:37;6.86;78.26
66722;SHT31;53633;49.932;10.884;2024-02-23T06:32:07;6.89;78.14
66722;SHT31;53633;49.932;10.884;2024-02-23T06:34:35;6.85;77.75
66722;SHT31;53633;49.932;10.884;2024-02-23T06:37:18;6.83;78.15
66722;SHT31;53633;49.932;10.884;2024-02-23T06:39:46;6.81;78.18
66722;SHT31;53633;49.932;10.884;2024-02-23T06:42:18;6.82;78.05
66722;SHT31;53633;49.932;10.884;2024-02-23T06:44:47;6.76;77.82
66722;SHT31;53633;49.932;10.884;2024-02-23T06:47:15;6.85;77.97
66722;SHT31;53633;49.932;10.884;2024-02-23T06:49:43;6.90;78.20
66722;SHT31;53633;49.932;10.884;2024-02-23T06:52:15;6.89;77.90
66722;SHT31;53633;49.932;10.884;2024-02-23T06:54:47;6.95;78.16
66722;SHT31;53633;49.932;10.884;2024-02-23T06:57:19;6.90;78.03
66722;SHT31;53633;49.932;10.884;2024-02-23T06:59:53;6.92;77.92
66722;SHT31;53633;49.932;10.884;2024-02-23T07:02:21;6.93;78.36
66722;SHT31;53633;49.932;10.884;2024-02-23T07:04:51;6.97;78.29
66722;SHT31;53633;49.932;10.884;2024-02-23T07:07:21;6.96;78.35
66722;SHT31;53633;49.932;10.884;2024-02-23T07:09:53;6.88;78.25
66722;SHT31;53633;49.932;10.884;2024-02-23T07:12:33;6.76;78.16
66722;SHT31;53633;49.932;10.884;2024-02-23T07:15:05;6.85;78.32
66722;SHT31;53633;49.932;10.884;2024-02-23T07:17:37;6.86;78.48
66722;SHT31;53633;49.932;10.884;2024-02-23T07:20:30;6.88;78.55
66722;SHT31;53633;49.932;10.884;2024-02-23T07:23:08;6.89;78.35
66722;SHT31;53633;49.932;10.884;2024-02-23T07:25:54;6.96;78.09
66722;SHT31;53633;49.932;10.884;2024-02-23T07:28:42;6.93;77.79
66722;SHT31;53633;49.932;10.884;2024-02-23T07:31:14;6.86;77.05
66722;SHT31;53633;49.932;10.884;2024-02-23T07:33:48;6.82;77.16
66722;SHT31;53633;49.932;10.884;2024-02-23T07:36:17;6.81;77.10
66722;SHT31;53633;49.932;10.884;2024-02-23T07:38:53;6.95;77.77
66722;SHT31;53633;49.932;10.884;2024-02-23T07:41:22;7.01;77.49
66722;SHT31;53633;49.932;10.884;2024-02-23T07:47:38;7.13;77.28
66722;SHT31;53633;49.932;10.884;2024-02-23T07:50:51;7.13;76.93
66722;SHT31;53633;49.932;10.884;2024-02-23T07:54:00;7.23;77.07
66722;SHT31;53633;49.932;10.884;2024-02-23T07:56:38;7.26;77.03
66722;SHT31;53633;49.932;10.884;2024-02-23T07:59:39;7.30;76.89
66722;SHT31;53633;49.932;10.884;2024-02-23T08:02:47;7.40;76.95
66722;SHT31;53633;49.932;10.884;2024-02-23T08:06:05;7.41;77.09
66722;SHT31;53633;49.932;10.884;2024-02-23T08:22:25;7.66;77.11
66722;SHT31;53633;49.932;10.884;2024-02-23T08:25:41;7.64;77.23
66722;SHT31;53633;49.932;10.884;2024-02-23T08:28:36;7.64;77.49
66722;SHT31;53633;49.932;10.884;2024-02-23T08:31:55;7.68;77.25
66722;SHT31;53633;49.932;10.884;2024-02-23T08:35:19;7.75;77.27
66722;SHT31;53633;49.932;10.884;2024-02-23T08:38:24;7.81;77.23
66722;SHT31;53633;49.932;10.884;2024-02-23T08:41:41;7.87;77.01
66722;SHT31;53633;49.932;10.884;2024-02-23T08:44:45;7.89;76.80
66722;SHT31;53633;49.932;10.884;2024-02-23T08:47:53;7.92;76.80
66722;SHT31;53633;49.932;10.884;2024-02-23T08:50:37;7.96;76.56
66722;SHT31;53633;49.932;10.884;2024-02-23T08:53:50;8.07;76.55
66722;SHT31;53633;49.932;10.884;2024-02-23T08:59:27;8.10;75.38
66722;SHT31;53633;49.932;10.884;2024-02-23T09:02:14;8.17;75.59
66722;SHT31;53633;49.932;10.884;2024-02-23T09:05:22;8.16;75.46
66722;SHT31;53633;49.932;10.884;2024-02-23T09:08:20;8.27;75.24
66722;SHT31;53633;49.932;10.884;2024-02-23T09:17:57;8.09;73.08
66722;SHT31;53633;49.932;10.884;2024-02-23T09:20:43;7.97;73.17
66722;SHT31;53633;49.932;10.884;2024-02-23T09:23:17;7.93;73.59
66722;SHT31;53633;49.932;10.884;2024-02-23T09:26:08;7.95;73.10
66722;SHT31;53633;49.932;10.884;2024-02-23T09:29:15;7.85;72.85
66722;SHT31;53633;49.932;10.884;2024-02-23T09:32:05;7.90;73.60
66722;SHT31;53633;49.932;10.884;2024-02-23T09:48:02;8.17;70.62
66722;SHT31;53633;49.932;10.884;2024-02-23T09:51:04;8.20;69.97
66722;SHT31;53633;49.932;10.884;2024-02-23T09:57:07;8.34;70.16
66722;SHT31;53633;49.932;10.884;2024-02-23T10:00:15;8.45;69.51
66722;SHT31;53633;49.932;10.884;2024-02-23T10:03:33;8.60;70.12
66722;SHT31;53633;49.932;10.884;2024-02-23T10:06:09;8.54;68.84
66722;SHT31;53633;49.932;10.884;2024-02-23T10:09:14;8.58;68.32
66722;SHT31;53633;49.932;10.884;2024-02-23T10:12:15;8.73;68.51
66722;SHT31;53633;49.932;10.884;2024-02-23T10:15:22;8.73;68.45
66722;SHT31;53633;49.932;10.884;2024-02-23T10:25:10;8.51;67.39
66722;SHT31;53633;49.932;10.884;2024-02-23T10:27:51;8.50;67.64
66722;SHT31;53633;49.932;10.884;2024-02-23T10:30:41;8.52;67.95
66722;SHT31;53633;49.932;10.884;2024-02-23T10:33:27;8.68;68.06
66722;SHT31;53633;49.932;10.884;2024-02-23T10:36:40;8.71;67.33
66722;SHT31;53633;49.932;10.884;2024-02-23T10:43:09;8.80;67.01
66722;SHT31;53633;49.932;10.884;2024-02-23T10:45:47;8.75;66.97
66722;SHT31;53633;49.932;10.884;2024-02-23T10:51:59;8.85;66.13
66722;SHT31;53633;49.932;10.884;2024-02-23T10:54:27;8.86;66.26
66722;SHT31;53633;49.932;10.884;2024-02-23T10:56:58;8.83;66.50
66722;SHT31;53633;49.932;10.884;2024-02-23T11:03:04;8.79;65.89
66722;SHT31;53633;49.932;10.884;2024-02-23T11:05:36;8.92;66.00
66722;SHT31;53633;49.932;10.884;2024-02-23T11:08:08;8.86;65.93
66722;SHT31;53633;49.932;10.884;2024-02-23T11:10:42;8.99;65.99
66722;SHT31;53633;49.932;10.884;2024-02-23T11:16:43;9.06;66.43
66722;SHT31;53633;49.932;10.884;2024-02-23T11:22:31;9.03;66.52
66722;SHT31;53633;49.932;10.884;2024-02-23T11:26:09;9.12;66.05
66722;SHT31;53633;49.932;10.884;2024-02-23T11:28:46;9.13;66.31
66722;SHT31;53633;49.932;10.884;2024-02-23T11:31:59;9.09;65.73
66722;SHT31;53633;49.932;10.884;2024-02-23T11:38:03;9.00;64.95
66722;SHT31;53633;49.932;10.884;2024-02-23T11:41:08;9.02;65.42
66722;SHT31;53633;49.932;10.884;2024-02-23T11:47:12;9.06;64.93
66722;SHT31;53633;49.932;10.884;2024-02-23T11:50:21;9.10;64.58
66722;SHT31;53633;49.932;10.884;2024-02-23T11:52:51;9.12;64.46
66722;SHT31;53633;49.932;10.884;2024-02-23T12:08:51;9.07;62.74
66722;SHT31;53633;49.932;10.884;2024-02-23T12:11:27;9.20;63.63
66722;SHT31;53633;49.932;10.884;2024-02-23T12:14:07;9.09;63.82
66722;SHT31;53633;49.932;10.884;2024-02-23T12:16:40;9.07;64.87
66722;SHT31;53633;49.932;10.884;2024-02-23T12:19:15;9.02;64.52
66722;SHT31;53633;49.932;10.884;2024-02-23T12:22:00;9.15;64.50
66722;SHT31;53633;49.932;10.884;2024-02-23T12:24:46;9.20;64.41
66722;SHT31;53633;49.932;10.884;2024-02-23T12:27:17;9.20;64.38
66722;SHT31;53633;49.932;10.884;2024-02-23T12:30:03;9.17;65.12
66722;SHT31;53633;49.932;10.884;2024-02-23T12:36:10;9.06;65.43
66722;SHT31;53633;49.932;10.884;2024-02-23T12:38:57;9.15;65.36
66722;SHT31;53633;49.932;10.884;2024-02-23T12:41:57;9.20;64.68
66722;SHT31;53633;49.932;10.884;2024-02-23T12:44:30;9.12;63.36
66722;SHT31;53633;49.932;10.884;2024-02-23T12:48:16;9.23;63.82
66722;SHT31;53633;49.932;10.884;2024-02-23T12:50:59;9.19;62.98
66722;SHT31;53633;49.932;10.884;2024-02-23T12:53:34;9.30;62.50
66722;SHT31;53633;49.932;10.884;2024-02-23T12:56:07;9.19;61.96
66722;SHT31;53633;49.932;10.884;2024-02-23T12:58:43;9.15;61.60
66722;SHT31;53633;49.932;10.884;2024-02-23T13:01:12;9.09;62.38
66722;SHT31;53633;49.932;10.884;2024-02-23T13:03:43;9.23;62.37
66722;SHT31;53633;49.932;10.884;2024-02-23T13:06:12;9.33;63.17
66722;SHT31;53633;49.932;10.884;2024-02-23T13:08:54;9.47;63.08
66722;SHT31;53633;49.932;10.884;2024-02-23T13:11:28;9.51;62.25
66722;SHT31;53633;49.932;10.884;2024-02-23T13:14:17;9.55;62.34
66722;SHT31;53633;49.932;10.884;2024-02-23T13:16:47;9.41;62.21
66722;SHT31;53633;49.932;10.884;2024-02-23T13:19:53;9.30;62.40
66722;SHT31;53633;49.932;10.884;2024-02-23T13:22:38;9.33;62.60
66722;SHT31;53633;49.932;10.884;2024-02-23T13:31:26;9.48;63.79
66722;SHT31;53633;49.932;10.884;2024-02-23T13:33:54;9.47;63.38
66722;SHT31;53633;49.932;10.884;2024-02-23T13:36:24;9.38;63.24
66722;SHT31;53633;49.932;10.884;2024-02-23T13:38:58;9.28;64.02
66722;SHT31;53633;49.932;10.884;2024-02-23T13:41:28;9.31;63.70
66722;SHT31;53633;49.932;10.884;2024-02-23T13:43:55;9.26;64.04
66722;SHT31;53633;49.932;10.884;2024-02-23T13:50:05;9.22;64.68
66722;SHT31;53633;49.932;10.884;2024-02-23T13:52:45;9.30;64.63
66722;SHT31;53633;49.932;10.884;2024-02-23T13:55:17;9.28;64.59
66722;SHT31;53633;49.932;10.884;2024-02-23T13:58:16;9.30;64.42
66722;SHT31;53633;49.932;10.884;2024-02-23T14:01:39;9.34;64.40
66722;SHT31;53633;49.932;10.884;2024-02-23T14:04:31;9.43;64.23
66722;SHT31;53633;49.932;10.884;2024-02-23T14:07:02;9.45;64.10
66722;SHT31;53633;49.932;10.884;2024-02-23T14:09:38;9.48;63.96
66722;SHT31;53633;49.932;10.884;2024-02-23T14:12:28;9.47;64.60
66722;SHT31;53633;49.932;10.884;2024-02-23T14:15:29;9.33;64.44
66722;SHT31;53633;49.932;10.884;2024-02-23T14:21:24;9.28;63.68
66722;SHT31;53633;49.932;10.884;2024-02-23T14:27:32;9.20;63.67
66722;SHT31;53633;49.932;10.884;2024-02-23T14:30:10;9.23;63.46
66722;SHT31;53633;49.932;10.884;2024-02-23T14:33:17;9.23;63.16
66722;SHT31;53633;49.932;10.884;2024-02-23T14:51:55;9.13;63.71
66722;SHT31;53633;49.932;10.884;2024-02-23T14:55:00;9.12;63.66
66722;SHT31;53633;49.932;10.884;2024-02-23T14:57:43;9.06;64.38
66722;SHT31;53633;49.932;10.884;2024-02-23T15:03:52;8.95;63.63
66722;SHT31;53633;49.932;10.884;2024-02-23T15:13:28;8.79;64.34
66722;SHT31;53633;49.932;10.884;2024-02-23T15:16:02;8.71;63.82
66722;SHT31;53633;49.932;10.884;2024-02-23T15:18:34;8.69;63.94
66722;SHT31;53633;49.932;10.884;2024-02-23T15:21:18;8.76;63.94
66722;SHT31;53633;49.932;10.884;2024-02-23T15:27:34;8.72;64.53
66722;SHT31;53633;49.932;10.884;2024-02-23T15:30:30;8.67;64.58
66722;SHT31;53633;49.932;10.884;2024-02-23T15:33:48;8.57;64.46
66722;SHT31;53633;49.932;10.884;2024-02-23T15:40:15;8.52;64.97
66722;SHT31;53633;49.932;10.884;2024-02-23T15:42:59;8.61;65.39
66722;SHT31;53633;49.932;10.884;2024-02-23T15:46:33;8.69;65.82
66722;SHT31;53633;49.932;10.884;2024-02-23T15:49:28;8.68;65.27
66722;SHT31;53633;49.932;10.884;2024-02-23T15:52:34;8.61;64.71
66722;SHT31;53633;49.932;10.884;2024-02-23T15:55:28;8.51;65.22
66722;SHT31;53633;49.932;10.884;2024-02-23T15:58:15;8.41;65.34
66722;SHT31;53633;49.932;10.884;2024-02-23T16:10:29;8.26;66.21
66722;SHT31;53633;49.932;10.884;2024-02-23T16:13:12;8.19;66.45
66722;SHT31;53633;49.932;10.884;2024-02-23T16:16:06;8.17;66.38
66722;SHT31;53633;49.932;10.884;2024-02-23T16:19:12;8.07;66.17
66722;SHT31;53633;49.932;10.884;2024-02-23T16:21:55;8.06;66.47
66722;SHT31;53633;49.932;10.884;2024-02-23T16:25:02;8.00;67.02
66722;SHT31;53633;49.932;10.884;2024-02-23T17:02:49;7.58;69.50
66722;SHT31;53633;49.932;10.884;2024-02-23T17:05:33;7.54;69.95
66722;SHT31;53633;49.932;10.884;2024-02-23T17:08:15;7.51;69.77
66722;SHT31;53633;49.932;10.884;2024-02-23T17:10:45;7.45;69.99
66722;SHT31;53633;49.932;10.884;2024-02-23T17:13:15;7.40;70.00
66722;SHT31;53633;49.932;10.884;2024-02-23T17:15:46;7.35;70.20
66722;SHT31;53633;49.932;10.884;2024-02-23T17:18:27;7.31;70.47
66722;SHT31;53633;49.932;10.884;2024-02-23T17:21:09;7.32;70.75
66722;SHT31;53633;49.932;10.884;2024-02-23T17:23:45;7.31;70.83
66722;SHT31;53633;49.932;10.884;2024-02-23T17:26:25;7.27;70.88
66722;SHT31;53633;49.932;10.884;2024-02-23T17:28:58;7.20;71.08
66722;SHT31;53633;49.932;10.884;2024-02-23T17:31:27;7.16;71.39
66722;SHT31;53633;49.932;10.884;2024-02-23T17:33:58;7.06;71.74
66722;SHT31;53633;49.932;10.884;2024-02-23T17:36:27;7.06;72.14
66722;SHT31;53633;49.932;10.884;2024-02-23T17:38:55;7.10;72.17
66722;SHT31;53633;49.932;10.884;2024-02-23T17:41:42;7.01;72.21
66722;SHT31;53633;49.932;10.884;2024-02-23T17:44:16;7.00;72.31
66722;SHT31;53633;49.932;10.884;2024-02-23T17:46:43;6.93;72.51
66722;SHT31;53633;49.932;10.884;2024-02-23T17:49:18;6.92;72.95
66722;SHT31;53633;49.932;10.884;2024-02-23T17:51:53;6.83;73.02
66722;SHT31;53633;49.932;10.884;2024-02-23T17:54:27;6.81;73.40
66722;SHT31;53633;49.932;10.884;2024-02-23T17:56:59;6.69;73.66
66722;SHT31;53633;49.932;10.884;2024-02-23T17:59:26;6.69;73.81
66722;SHT31;53633;49.932;10.884;2024-02-23T18:02:02;6.69;74.04
66722;SHT31;53633;49.932;10.884;2024-02-23T18:04:46;6.69;74.25
66722;SHT31;53633;49.932;10.884;2024-02-23T18:07:27;6.73;74.23
66722;SHT31;53633;49.932;10.884;2024-02-23T18:09:55;6.68;74.25
66722;SHT31;53633;49.932;10.884;2024-02-23T18:12:24;6.71;74.34
66722;SHT31;53633;49.932;10.884;2024-02-23T18:14:52;6.67;74.47
66722;SHT31;53633;49.932;10.884;2024-02-23T18:17:33;6.67;74.61
66722;SHT31;53633;49.932;10.884;2024-02-23T18:20:14;6.62;74.59
66722;SHT31;53633;49.932;10.884;2024-02-23T18:22:43;6.62;74.85
66722;SHT31;53633;49.932;10.884;2024-02-23T18:25:17;6.58;75.17
66722;SHT31;53633;49.932;10.884;2024-02-23T18:27:48;6.54;75.40
66722;SHT31;53633;49.932;10.884;2024-02-23T18:30:18;6.55;75.56
66722;SHT31;53633;49.932;10.884;2024-02-23T18:32:48;6.58;75.65
66722;SHT31;53633;49.932;10.884;2024-02-23T18:35:18;6.56;75.63
66722;SHT31;53633;49.932;10.884;2024-02-23T18:37:46;6.56;75.54
66722;SHT31;53633;49.932;10.884;2024-02-23T18:40:15;6.58;75.63
66722;SHT31;53633;49.932;10.884;2024-02-23T18:42:48;6.55;75.74
66722;SHT31;53633;49.932;10.884;2024-02-23T18:45:17;6.58;75.98
66722;SHT31;53633;49.932;10.884;2024-02-23T18:47:44;6.56;75.92
66722;SHT31;53633;49.932;10.884;2024-02-23T18:50:28;6.48;76.26
66722;SHT31;53633;49.932;10.884;2024-02-23T18:52:57;6.46;76.38
66722;SHT31;53633;49.932;10.884;2024-02-23T18:55:28;6.41;76.27
66722;SHT31;53633;49.932;10.884;2024-02-23T18:58:00;6.41;76.29
66722;SHT31;53633;49.932;10.884;2024-02-23T19:00:28;6.40;76.09
66722;SHT31;53633;49.932;10.884;2024-02-23T19:02:57;6.42;76.16
66722;SHT31;53633;49.932;10.884;2024-02-23T19:05:31;6.44;76.05
66722;SHT31;53633;49.932;10.884;2024-02-23T19:08:06;6.45;76.04
66722;SHT31;53633;49.932;10.884;2024-02-23T19:10:38;6.46;75.89
66722;SHT31;53633;49.932;10.884;2024-02-23T19:13:19;6.41;75.89
66722;SHT31;53633;49.932;10.884;2024-02-23T19:15:48;6.40;75.99
66722;SHT31;53633;49.932;10.884;2024-02-23T19:18:17;6.35;76.05
66722;SHT31;53633;49.932;10.884;2024-02-23T19:20:57;6.35;76.14
66722;SHT31;53633;49.932;10.884;2024-02-23T19:23:29;6.31;76.22
66722;SHT31;53633;49.932;10.884;2024-02-23T19:26:05;6.30;76.40
66722;SHT31;53633;49.932;10.884;2024-02-23T19:28:40;6.24;76.63
66722;SHT31;53633;49.932;10.884;2024-02-23T19:31:08;6.25;76.77
66722;SHT31;53633;49.932;10.884;2024-02-23T19:33:38;6.21;77.08
66722;SHT31;53633;49.932;10.884;2024-02-23T19:36:17;6.13;77.29
66722;SHT31;53633;49.932;10.884;2024-02-23T19:38:49;6.11;77.79
66722;SHT31;53633;49.932;10.884;2024-02-23T19:41:19;6.09;77.73
66722;SHT31;53633;49.932;10.884;2024-02-23T19:43:52;6.11;77.67
66722;SHT31;53633;49.932;10.884;2024-02-23T19:46:20;6.14;77.55
66722;SHT31;53633;49.932;10.884;2024-02-23T19:48:48;6.14;77.44
66722;SHT31;53633;49.932;10.884;2024-02-23T19:51:21;6.16;77.40
66722;SHT31;53633;49.932;10.884;2024-02-23T19:53:56;6.09;77.09
66722;SHT31;53633;49.932;10.884;2024-02-23T19:56:36;6.10;77.11
66722;SHT31;53633;49.932;10.884;2024-02-23T19:59:06;6.07;77.25
66722;SHT31;53633;49.932;10.884;2024-02-23T20:01:35;6.09;77.19
66722;SHT31;53633;49.932;10.884;2024-02-23T20:04:07;6.03;77.40
66722;SHT31;53633;49.932;10.884;2024-02-23T20:06:36;6.04;77.41
66722;SHT31;53633;49.932;10.884;2024-02-23T20:09:05;6.02;77.40
66722;SHT31;53633;49.932;10.884;2024-02-23T20:11:33;6.02;77.56
66722;SHT31;53633;49.932;10.884;2024-02-23T20:14:08;5.99;77.68
66722;SHT31;53633;49.932;10.884;2024-02-23T20:16:36;5.95;77.69
66722;SHT31;53633;49.932;10.884;2024-02-23T20:22:07;5.90;77.99
66722;SHT31;53633;49.932;10.884;2024-02-23T20:24:36;5.87;78.17
66722;SHT31;53633;49.932;10.884;2024-02-23T20:27:37;5.95;78.19
66722;SHT31;53633;49.932;10.884;2024-02-23T20:30:19;5.93;78.14
66722;SHT31;53633;49.932;10.884;2024-02-23T20:32:49;5.93;78.27
66722;SHT31;53633;49.932;10.884;2024-02-23T20:45:00;5.85;78.42
66722;SHT31;53633;49.932;10.884;2024-02-23T20:47:45;5.76;78.70
66722;SHT31;53633;49.932;10.884;2024-02-23T20:50:28;5.73;78.81
66722;SHT31;53633;49.932;10.884;2024-02-23T20:53:28;5.73;78.80
66722;SHT31;53633;49.932;10.884;2024-02-23T20:56:10;5.75;78.50
66722;SHT31;53633;49.932;10.884;2024-02-23T21:01:28;5.65;79.04
66722;SHT31;53633;49.932;10.884;2024-02-23T21:04:09;5.66;79.25
66722;SHT31;53633;49.932;10.884;2024-02-23T21:06:53;5.65;79.04
66722;SHT31;53633;49.932;10.884;2024-02-23T21:09:25;5.68;79.00
66722;SHT31;53633;49.932;10.884;2024-02-23T21:11:57;5.70;79.04
66722;SHT31;53633;49.932;10.884;2024-02-23T21:14:39;5.68;79.10
66722;SHT31;53633;49.932;10.884;2024-02-23T21:20:23;5.70;79.29
66722;SHT31;53633;49.932;10.884;2024-02-23T21:23:25;5.76;79.25
66722;SHT31;53633;49.932;10.884;2024-02-23T21:25:57;5.73;79.42
66722;SHT31;53633;49.932;10.884;2024-02-23T21:28:40;5.70;79.37
66722;SHT31;53633;49.932;10.884;2024-02-23T21:31:20;5.66;79.24
66722;SHT31;53633;49.932;10.884;2024-02-23T21:34:04;5.62;79.45
66722;SHT31;53633;49.932;10.884;2024-02-23T21:36:49;5.63;79.59
66722;SHT31;53633;49.932;10.884;2024-02-23T21:39:23;5.58;79.60
66722;SHT31;53633;49.932;10.884;2024-02-23T21:42:05;5.63;79.82
66722;SHT31;53633;49.932;10.884;2024-02-23T21:44:33;5.62;79.98
66722;SHT31;53633;49.932;10.884;2024-02-23T21:47:15;5.62;79.73
66722;SHT31;53633;49.932;10.884;2024-02-23T21:50:13;5.60;79.81
66722;SHT31;53633;49.932;10.884;2024-02-23T21:52:54;5.59;79.78
66722;SHT31;53633;49.932;10.884;2024-02-23T21:55:48;5.48;79.81
66722;SHT31;53633;49.932;10.884;2024-02-23T21:58:58;5.45;80.11
66722;SHT31;53633;49.932;10.884;2024-02-23T22:01:30;5.40;80.13
66722;SHT31;53633;49.932;10.884;2024-02-23T22:03:59;5.31;80.20
66722;SHT31;53633;49.932;10.884;2024-02-23T22:06:29;5.26;80.32
66722;SHT31;53633;49.932;10.884;2024-02-23T22:12:10;5.21;80.25
66722;SHT31;53633;49.932;10.884;2024-02-23T22:14:41;5.23;80.33
66722;SHT31;53633;49.932;10.884;2024-02-23T22:17:08;5.17;80.30
66722;SHT31;53633;49.932;10.884;2024-02-23T22:19:40;5.17;80.24
66722;SHT31;53633;49.932;10.884;2024-02-23T22:22:12;5.17;80.38
66722;SHT31;53633;49.932;10.884;2024-02-23T22:24:47;5.19;80.38
66722;SHT31;53633;49.932;10.884;2024-02-23T22:27:24;5.16;80.08
66722;SHT31;53633;49.932;10.884;2024-02-23T22:29:58;5.10;80.10
66722;SHT31;53633;49.932;10.884;2024-02-23T22:32:40;5.07;80.37